Time;durP1;ratioP1;P1;durP2;ratioP2;P2;SDS_P1;SDS_P2;PMS_P1;PMS_P2;Temp;Humidity;BMP_temperature;BMP_pressure;BME280_temperature;BME280_humidity;BME280_pressure;Samples;Min_cycle;Max_cycle;Signal;HPM_P1;HPM_P2
2023/10/05 00:03:44;;;;;;;8.55;7.32;;;;;;;;;;5094777;28;20351;-75
2023/10/05 00:06:23;;;;;;;11.40;7.43;;;;;;;;;;5099387;28;20027;-75
2023/10/05 00:08:50;;;;;;;9.95;7.63;;;;;;;;;;5098331;28;20036;-75
2023/10/05 00:11:29;;;;;;;12.25;8.23;;;;;;;;;;5095410;28;20031;-75
2023/10/05 00:13:58;;;;;;;13.40;7.85;;;;;;;;;;5097803;28;20116;-75
2023/10/05 00:16:36;;;;;;;10.48;7.72;;;;;;;;;;5098254;28;20034;-74
2023/10/05 00:19:02;;;;;;;9.82;7.20;;;;;;;;;;5098900;28;20814;-74
2023/10/05 00:21:27;;;;;;;9.05;8.15;;;;;;;;;;5095511;28;20011;-77
2023/10/05 00:24:00;;;;;;;8.45;7.45;;;;;;;;;;5099181;28;20032;-77
2023/10/05 00:26:28;;;;;;;10.55;7.50;;;;;;;;;;5095090;28;20019;-77
2023/10/05 00:29:04;;;;;;;13.30;7.75;;;;;;;;;;5092585;28;20403;-76
2023/10/05 00:31:30;;;;;;;8.98;7.22;;;;;;;;;;5091031;28;20110;-76
2023/10/05 00:33:56;;;;;;;9.65;7.18;;;;;;;;;;5096469;28;20044;-77
2023/10/05 00:36:25;;;;;;;12.20;6.95;;;;;;;;;;5096277;28;20032;-76
2023/10/05 00:38:51;;;;;;;9.50;7.60;;;;;;;;;;5095709;28;20096;-76
2023/10/05 00:41:16;;;;;;;10.02;6.78;;;;;;;;;;5097418;28;20778;-77
2023/10/05 00:43:46;;;;;;;14.90;7.20;;;;;;;;;;5091195;28;20442;-78
2023/10/05 00:46:11;;;;;;;;;;;;;;;;;;5090154;28;20020;-78
2023/10/05 00:48:40;;;;;;;11.07;6.13;;;;;;;;;;5087960;28;19999;-77
2023/10/05 00:51:08;;;;;;;8.88;6.88;;;;;;;;;;5098749;27;20074;-77
2023/10/05 00:53:35;;;;;;;9.93;6.65;;;;;;;;;;5095523;28;20035;-78
2023/10/05 00:56:07;;;;;;;8.93;6.03;;;;;;;;;;5096472;28;20150;-77
2023/10/05 00:58:37;;;;;;;16.17;7.05;;;;;;;;;;5095890;28;20027;-78
2023/10/05 01:01:07;;;;;;;8.43;6.55;;;;;;;;;;5095595;28;20023;-77
2023/10/05 01:03:34;;;;;;;8.77;6.35;;;;;;;;;;5112102;27;20152;-76
2023/10/05 01:08:54;;;;;;;8.32;6.00;;;;;;;;;;5096149;28;20034;-77
2023/10/05 01:11:25;;;;;;;8.38;6.18;;;;;;;;;;5096550;28;20106;-78
2023/10/05 01:13:56;;;;;;;10.73;6.82;;;;;;;;;;5095639;28;20460;-78
2023/10/05 01:16:22;;;;;;;9.52;6.15;;;;;;;;;;5094406;28;20031;-77
2023/10/05 01:18:47;;;;;;;11.95;6.45;;;;;;;;;;5094980;28;20081;-78
2023/10/05 01:21:13;;;;;;;6.47;5.32;;;;;;;;;;5097485;28;20028;-77
2023/10/05 01:23:38;;;;;;;8.32;5.72;;;;;;;;;;5091216;28;20402;-76
2023/10/05 01:26:13;;;;;;;8.65;5.90;;;;;;;;;;5096341;28;20110;-75
2023/10/05 01:28:41;;;;;;;7.20;6.20;;;;;;;;;;5097283;28;20376;-78
2023/10/05 01:31:20;;;;;;;7.90;5.70;;;;;;;;;;5095902;28;20362;-75
2023/10/05 01:33:46;;;;;;;10.90;6.03;;;;;;;;;;5097091;28;20336;-75
2023/10/05 01:36:12;;;;;;;12.75;6.35;;;;;;;;;;5095018;28;20138;-74
2023/10/05 01:38:39;;;;;;;9.70;6.47;;;;;;;;;;5090500;28;20383;-75
2023/10/05 01:41:09;;;;;;;12.32;6.20;;;;;;;;;;5091475;28;20038;-75
2023/10/05 01:43:35;;;;;;;11.25;6.13;;;;;;;;;;5096327;28;20655;-76
2023/10/05 01:46:01;;;;;;;10.75;6.10;;;;;;;;;;5096701;28;20034;-76
2023/10/05 01:48:27;;;;;;;9.05;5.60;;;;;;;;;;5093312;28;20023;-77
2023/10/05 01:50:52;;;;;;;7.57;5.63;;;;;;;;;;5098244;28;20449;-78
2023/10/05 01:53:18;;;;;;;11.07;7.45;;;;;;;;;;5097155;28;20032;-75
2023/10/05 01:55:49;;;;;;;12.98;6.60;;;;;;;;;;5097147;28;20023;-76
2023/10/05 01:58:22;;;;;;;11.88;7.10;;;;;;;;;;5097559;28;20039;-76
2023/10/05 02:00:48;;;;;;;10.85;5.20;;;;;;;;;;5095525;28;20028;-75
2023/10/05 02:03:13;;;;;;;12.05;6.22;;;;;;;;;;5096337;28;20081;-74
2023/10/05 02:05:39;;;;;;;9.85;7.00;;;;;;;;;;5089918;28;20031;-75
2023/10/05 02:08:04;;;;;;;9.07;5.35;;;;;;;;;;5088015;28;20089;-74
2023/10/05 02:10:34;;;;;;;9.45;5.85;;;;;;;;;;5091450;28;20024;-76
2023/10/05 02:13:01;;;;;;;8.27;5.13;;;;;;;;;;5096435;28;20856;-76
2023/10/05 02:15:29;;;;;;;13.25;5.38;;;;;;;;;;5094945;28;20103;-75
2023/10/05 02:17:56;;;;;;;8.30;5.20;;;;;;;;;;5086244;28;20035;-75
2023/10/05 02:22:59;;;;;;;7.72;4.70;;;;;;;;;;5093685;28;20123;-75
2023/10/05 02:25:33;;;;;;;7.32;4.93;;;;;;;;;;5094745;28;20099;-75
2023/10/05 02:27:59;;;;;;;11.27;5.00;;;;;;;;;;5096318;28;20024;-75
2023/10/05 02:30:27;;;;;;;8.55;5.32;;;;;;;;;;5086478;28;20027;-76
2023/10/05 02:32:53;;;;;;;9.18;4.50;;;;;;;;;;5094359;28;20473;-75
2023/10/05 02:35:24;;;;;;;9.00;4.93;;;;;;;;;;5094106;28;20051;-75
2023/10/05 02:37:51;;;;;;;9.13;4.22;;;;;;;;;;5093406;28;20020;-75
2023/10/05 02:40:17;;;;;;;8.27;4.45;;;;;;;;;;5081181;28;20508;-75
2023/10/05 02:42:43;;;;;;;12.38;5.53;;;;;;;;;;5083687;28;20113;-75
2023/10/05 02:45:11;;;;;;;9.00;6.05;;;;;;;;;;5085642;28;20027;-76
2023/10/05 02:47:36;;;;;;;8.88;5.75;;;;;;;;;;5095789;28;20034;-77
2023/10/05 02:50:06;;;;;;;7.18;5.78;;;;;;;;;;5098461;28;21089;-77
2023/10/05 02:52:33;;;;;;;6.32;5.57;;;;;;;;;;5099481;28;20032;-77
2023/10/05 02:54:58;;;;;;;8.50;5.57;;;;;;;;;;5097866;28;20032;-77
2023/10/05 02:57:25;;;;;;;7.75;4.70;;;;;;;;;;5099872;28;20034;-77
2023/10/05 02:59:51;;;;;;;8.93;5.45;;;;;;;;;;5101887;28;20039;-77
2023/10/05 03:02:18;;;;;;;7.20;5.45;;;;;;;;;;5099687;28;20020;-76
2023/10/05 03:04:47;;;;;;;8.95;5.25;;;;;;;;;;5098080;28;20112;-75
2023/10/05 03:07:17;;;;;;;10.02;5.70;;;;;;;;;;5097623;28;20026;-76
2023/10/05 03:09:43;;;;;;;11.90;5.60;;;;;;;;;;5098262;28;20036;-75
2023/10/05 03:12:09;;;;;;;9.77;6.07;;;;;;;;;;5100070;28;20375;-76
2023/10/05 03:14:34;;;;;;;6.75;5.07;;;;;;;;;;5097363;28;20040;-76
2023/10/05 03:17:04;;;;;;;9.23;4.72;;;;;;;;;;5087456;28;20565;-75
2023/10/05 03:19:34;;;;;;;12.30;6.03;;;;;;;;;;5099440;28;20102;-75
2023/10/05 03:22:04;;;;;;;7.07;5.00;;;;;;;;;;5100074;28;20817;-76
2023/10/05 03:24:30;;;;;;;7.28;4.93;;;;;;;;;;5093927;28;20032;-77
2023/10/05 03:26:55;;;;;;;8.48;4.68;;;;;;;;;;5099712;28;20113;-75
2023/10/05 03:29:21;;;;;;;7.72;5.03;;;;;;;;;;5100825;28;20092;-76
2023/10/05 03:34:32;;;;;;;8.85;4.38;;;;;;;;;;5097390;28;20060;-76
2023/10/05 03:37:03;;;;;;;7.28;4.78;;;;;;;;;;5100266;28;20058;-76
2023/10/05 03:39:33;;;;;;;7.30;5.05;;;;;;;;;;5097725;28;20047;-76
2023/10/05 03:41:58;;;;;;;;;;;;;;;;;;5100909;28;20117;-75
2023/10/05 03:44:24;;;;;;;11.63;4.70;;;;;;;;;;5099964;28;20117;-76
2023/10/05 03:46:49;;;;;;;9.30;4.95;;;;;;;;;;5099597;28;20024;-76
2023/10/05 03:49:17;;;;;;;7.50;4.97;;;;;;;;;;5093163;28;20050;-76
2023/10/05 03:51:49;;;;;;;8.52;4.95;;;;;;;;;;5092676;28;20028;-76
2023/10/05 03:54:15;;;;;;;10.23;5.22;;;;;;;;;;5097234;28;20032;-76
2023/10/05 03:56:42;;;;;;;11.07;5.05;;;;;;;;;;5098094;28;20349;-75
2023/10/05 03:59:08;;;;;;;10.35;5.78;;;;;;;;;;5098745;28;20065;-75
2023/10/05 04:01:34;;;;;;;8.15;5.22;;;;;;;;;;5095978;28;20024;-74
2023/10/05 04:04:04;;;;;;;7.53;4.95;;;;;;;;;;5089302;28;20019;-76
2023/10/05 04:06:30;;;;;;;9.95;5.45;;;;;;;;;;5083144;28;20443;-74
2023/10/05 04:08:57;;;;;;;9.65;5.50;;;;;;;;;;5085474;28;20027;-75
2023/10/05 04:11:26;;;;;;;5.38;4.50;;;;;;;;;;5082297;28;20054;-75
2023/10/05 04:13:53;;;;;;;7.85;5.07;;;;;;;;;;5090353;28;20027;-75
2023/10/05 04:16:26;;;;;;;8.68;4.65;;;;;;;;;;5090938;28;20031;-74
2023/10/05 04:18:54;;;;;;;7.85;4.88;;;;;;;;;;5100198;28;20024;-72
2023/10/05 04:21:23;;;;;;;11.40;5.70;;;;;;;;;;5097707;28;20028;-74
2023/10/05 04:23:58;;;;;;;7.95;5.30;;;;;;;;;;5099229;28;20024;-73
2023/10/05 04:26:32;;;;;;;9.10;5.93;;;;;;;;;;5098782;28;20032;-74
2023/10/05 04:28:58;;;;;;;8.73;5.25;;;;;;;;;;5097171;28;20451;-75
2023/10/05 04:31:26;;;;;;;9.65;5.28;;;;;;;;;;5096554;28;20039;-77
2023/10/05 04:33:53;;;;;;;10.88;5.45;;;;;;;;;;5095356;28;20128;-74
2023/10/05 04:36:20;;;;;;;8.60;5.03;;;;;;;;;;5086982;28;20047;-73
2023/10/05 04:38:45;;;;;;;10.13;4.80;;;;;;;;;;5094092;28;20023;-72
2023/10/05 04:41:14;;;;;;;7.70;5.57;;;;;;;;;;5096670;28;20031;-75
2023/10/05 04:43:43;;;;;;;9.10;5.47;;;;;;;;;;5095634;28;20028;-74
2023/10/05 04:46:09;;;;;;;11.57;5.50;;;;;;;;;;5097594;28;20450;-75
2023/10/05 04:48:35;;;;;;;8.85;4.97;;;;;;;;;;5094382;28;20055;-73
2023/10/05 04:51:01;;;;;;;11.02;5.75;;;;;;;;;;5095711;28;20066;-73
2023/10/05 04:53:27;;;;;;;12.07;5.60;;;;;;;;;;5097254;28;20442;-72
2023/10/05 04:56:00;;;;;;;7.95;4.97;;;;;;;;;;5094638;28;20040;-73
2023/10/05 04:58:53;;;;;;;7.50;4.80;;;;;;;;;;5095512;28;20081;-74
2023/10/05 05:01:29;;;;;;;11.25;5.00;;;;;;;;;;5088439;28;20028;-75
2023/10/05 05:03:56;;;;;;;10.98;5.38;;;;;;;;;;5084253;28;20024;-74
2023/10/05 05:06:22;;;;;;;10.90;5.43;;;;;;;;;;5091236;28;20031;-74
2023/10/05 05:08:48;;;;;;;11.43;5.20;;;;;;;;;;5094184;28;20020;-74
2023/10/05 05:11:18;;;;;;;10.68;5.85;;;;;;;;;;5084992;28;20042;-74
2023/10/05 05:13:44;;;;;;;14.60;5.78;;;;;;;;;;5085078;28;20029;-74
2023/10/05 05:16:09;;;;;;;14.35;6.20;;;;;;;;;;5079521;28;20028;-74
2023/10/05 05:18:41;;;;;;;10.93;6.00;;;;;;;;;;5081337;28;20019;-75
2023/10/05 05:21:07;;;;;;;52.15;34.38;;;;;;;;;;5074230;28;20102;-73
2023/10/05 05:23:34;;;;;;;24.05;14.93;;;;;;;;;;5074319;28;20053;-74
2023/10/05 05:25:59;;;;;;;23.23;14.05;;;;;;;;;;5077325;28;20036;-75
2023/10/05 05:28:24;;;;;;;30.30;17.85;;;;;;;;;;5093577;28;20019;-74
2023/10/05 05:30:52;;;;;;;38.17;25.98;;;;;;;;;;5096260;28;20023;-74
2023/10/05 05:33:18;;;;;;;37.33;26.55;;;;;;;;;;5081998;28;20038;-74
2023/10/05 05:35:44;;;;;;;40.65;25.95;;;;;;;;;;5084868;28;20752;-76
2023/10/05 05:38:10;;;;;;;27.85;19.85;;;;;;;;;;5082197;28;20431;-73
2023/10/05 05:40:36;;;;;;;31.20;17.02;;;;;;;;;;5094167;28;20107;-75
2023/10/05 05:43:07;;;;;;;19.33;12.45;;;;;;;;;;5094780;28;20030;-75
2023/10/05 05:45:32;;;;;;;17.55;9.13;;;;;;;;;;5094932;28;20077;-74
2023/10/05 05:47:58;;;;;;;15.88;10.23;;;;;;;;;;5078672;28;20023;-74
2023/10/05 05:50:23;;;;;;;12.77;8.82;;;;;;;;;;5094228;28;20027;-74
2023/10/05 05:52:51;;;;;;;9.30;7.38;;;;;;;;;;5096652;28;20020;-75
2023/10/05 05:55:22;;;;;;;16.63;8.77;;;;;;;;;;5090048;28;20034;-75
2023/10/05 05:57:51;;;;;;;13.68;6.38;;;;;;;;;;5090935;28;20035;-74
2023/10/05 06:00:18;;;;;;;14.32;6.90;;;;;;;;;;5095264;28;20043;-73
2023/10/05 06:02:43;;;;;;;12.57;6.82;;;;;;;;;;5093893;28;20028;-74
2023/10/05 06:05:09;;;;;;;20.33;8.27;;;;;;;;;;5094299;28;20146;-73
2023/10/05 06:07:38;;;;;;;11.90;6.50;;;;;;;;;;5091899;28;20025;-73
2023/10/05 06:10:13;;;;;;;16.33;6.88;;;;;;;;;;5093504;28;20032;-73
2023/10/05 06:12:42;;;;;;;11.57;6.60;;;;;;;;;;5091464;28;20063;-72
2023/10/05 06:15:13;;;;;;;9.38;5.80;;;;;;;;;;5088637;28;20114;-73
2023/10/05 06:17:39;;;;;;;8.95;5.88;;;;;;;;;;5093552;28;20431;-73
2023/10/05 06:20:13;;;;;;;12.00;7.20;;;;;;;;;;5094738;28;20045;-72
2023/10/05 06:22:39;;;;;;;12.50;7.70;;;;;;;;;;5084866;28;20073;-72
2023/10/05 06:25:04;;;;;;;15.45;10.82;;;;;;;;;;5096749;28;20035;-72
2023/10/05 06:27:30;;;;;;;16.10;10.90;;;;;;;;;;5095505;28;20442;-72
2023/10/05 06:29:55;;;;;;;16.75;12.30;;;;;;;;;;5094706;28;20127;-72
2023/10/05 06:32:21;;;;;;;15.35;11.20;;;;;;;;;;5093708;28;20114;-72
2023/10/05 06:34:48;;;;;;;17.35;10.07;;;;;;;;;;5088292;28;20206;-72
2023/10/05 06:37:13;;;;;;;14.50;8.57;;;;;;;;;;5092077;28;20036;-73
2023/10/05 06:39:39;;;;;;;13.80;9.50;;;;;;;;;;5090985;28;20031;-72
2023/10/05 06:42:04;;;;;;;11.20;7.65;;;;;;;;;;5090242;28;20085;-73
2023/10/05 06:44:30;;;;;;;15.57;8.40;;;;;;;;;;5091972;28;20027;-73
2023/10/05 06:46:56;;;;;;;13.93;7.75;;;;;;;;;;5090832;28;20023;-73
2023/10/05 06:49:22;;;;;;;16.83;7.10;;;;;;;;;;5087937;28;20023;-73
2023/10/05 06:51:48;;;;;;;10.50;6.50;;;;;;;;;;5090232;28;20097;-74
2023/10/05 06:54:14;;;;;;;8.45;6.10;;;;;;;;;;5090644;28;20036;-73
2023/10/05 06:56:41;;;;;;;32.55;9.98;;;;;;;;;;5090298;28;20024;-73
2023/10/05 06:59:07;;;;;;;19.58;7.38;;;;;;;;;;5091135;28;20027;-73
2023/10/05 07:01:34;;;;;;;14.10;6.13;;;;;;;;;;5089093;28;20027;-74
2023/10/05 07:04:00;;;;;;;9.73;5.80;;;;;;;;;;5088874;28;20172;-73
2023/10/05 07:06:32;;;;;;;10.40;5.80;;;;;;;;;;5090734;28;20424;-73
2023/10/05 07:08:59;;;;;;;11.13;5.63;;;;;;;;;;5087354;28;20040;-72
2023/10/05 07:11:24;;;;;;;11.60;5.90;;;;;;;;;;5092188;28;20119;-73
2023/10/05 07:13:49;;;;;;;9.48;5.32;;;;;;;;;;5091181;28;20024;-73
2023/10/05 07:16:16;;;;;;;10.48;5.90;;;;;;;;;;5087791;28;20486;-72
2023/10/05 07:18:42;;;;;;;13.20;6.32;;;;;;;;;;5084449;28;20080;-73
2023/10/05 07:21:11;;;;;;;10.93;6.13;;;;;;;;;;5090679;28;20018;-73
2023/10/05 07:23:39;;;;;;;9.55;6.28;;;;;;;;;;5089261;28;20084;-73
2023/10/05 07:26:06;;;;;;;8.38;5.75;;;;;;;;;;5089564;28;20429;-72
2023/10/05 07:28:32;;;;;;;17.17;6.72;;;;;;;;;;5088018;28;20038;-73
2023/10/05 07:30:59;;;;;;;13.60;6.45;;;;;;;;;;5093118;28;20106;-72
2023/10/05 07:33:24;;;;;;;11.10;6.50;;;;;;;;;;5093851;28;20036;-72
2023/10/05 07:35:50;;;;;;;10.88;7.00;;;;;;;;;;5095363;28;20032;-72
2023/10/05 07:38:15;;;;;;;15.68;6.88;;;;;;;;;;5093824;28;20031;-72
2023/10/05 07:40:42;;;;;;;10.00;6.47;;;;;;;;;;5096596;28;20130;-73
2023/10/05 07:43:08;;;;;;;8.75;6.13;;;;;;;;;;5091264;28;20032;-72
2023/10/05 07:45:33;;;;;;;11.70;6.50;;;;;;;;;;5095644;28;20115;-72
2023/10/05 07:47:59;;;;;;;9.90;6.53;;;;;;;;;;5089189;28;20452;-73
2023/10/05 07:50:25;;;;;;;15.02;6.47;;;;;;;;;;5090957;28;20016;-73
2023/10/05 07:52:50;;;;;;;11.95;6.65;;;;;;;;;;5091551;28;20101;-73
2023/10/05 07:55:16;;;;;;;10.02;6.30;;;;;;;;;;5094403;28;20028;-73
2023/10/05 07:57:42;;;;;;;10.15;6.63;;;;;;;;;;5095825;28;20419;-73
2023/10/05 08:00:11;;;;;;;11.20;6.68;;;;;;;;;;5098569;28;20019;-75
2023/10/05 08:02:37;;;;;;;8.55;6.45;;;;;;;;;;5097719;28;20058;-72
2023/10/05 08:05:02;;;;;;;12.27;6.22;;;;;;;;;;5098699;28;20036;-72
2023/10/05 08:07:28;;;;;;;12.98;6.15;;;;;;;;;;5100318;28;20403;-73
2023/10/05 08:09:55;;;;;;;12.20;6.28;;;;;;;;;;5099011;28;20039;-74
2023/10/05 08:12:20;;;;;;;12.85;6.55;;;;;;;;;;5094540;28;20119;-72
2023/10/05 08:14:45;;;;;;;10.38;6.07;;;;;;;;;;5099374;27;20122;-73
2023/10/05 08:17:12;;;;;;;16.50;6.25;;;;;;;;;;5091422;28;20103;-74
2023/10/05 08:19:37;;;;;;;9.50;6.70;;;;;;;;;;5088305;28;20034;-73
2023/10/05 08:22:03;;;;;;;12.40;6.88;;;;;;;;;;5093568;28;20028;-74
2023/10/05 08:24:28;;;;;;;11.57;7.15;;;;;;;;;;5097849;28;20035;-74
2023/10/05 08:26:56;;;;;;;13.50;7.30;;;;;;;;;;5096475;28;20032;-74
2023/10/05 08:29:22;;;;;;;11.60;7.70;;;;;;;;;;5099373;28;20024;-75
2023/10/05 08:31:51;;;;;;;9.80;6.75;;;;;;;;;;5096641;28;20015;-76
2023/10/05 08:34:20;;;;;;;8.93;5.95;;;;;;;;;;5083899;28;20063;-76
2023/10/05 08:36:49;;;;;;;10.37;5.97;;;;;;;;;;5090623;28;20040;-73
2023/10/05 08:39:15;;;;;;;11.23;5.97;;;;;;;;;;5100158;28;20256;-74
2023/10/05 08:41:42;;;;;;;11.13;5.88;;;;;;;;;;5099446;28;20360;-74
2023/10/05 08:44:11;;;;;;;12.38;5.63;;;;;;;;;;5096512;28;20579;-74
2023/10/05 08:46:37;;;;;;;;;;;;;;;;;;5095604;28;20027;-74
2023/10/05 08:49:07;;;;;;;9.68;7.18;;;;;;;;;;5096733;28;19912;-74
2023/10/05 08:51:32;;;;;;;9.75;5.80;;;;;;;;;;5098227;28;20435;-74
2023/10/05 08:54:02;;;;;;;8.63;5.70;;;;;;;;;;5098092;28;20020;-75
2023/10/05 08:56:28;;;;;;;9.95;6.03;;;;;;;;;;5094621;28;20370;-74
2023/10/05 08:58:53;;;;;;;10.02;5.95;;;;;;;;;;5095967;28;20045;-75
2023/10/05 09:01:35;;;;;;;12.82;5.45;;;;;;;;;;5096372;28;20023;-75
2023/10/05 09:06:47;;;;;;;7.40;5.72;;;;;;;;;;5096944;28;20507;-74
2023/10/05 09:09:14;;;;;;;11.75;5.50;;;;;;;;;;5098557;28;20411;-74
2023/10/05 09:11:40;;;;;;;18.85;6.20;;;;;;;;;;5096898;28;20446;-74
2023/10/05 09:14:17;;;;;;;11.75;6.03;;;;;;;;;;5098910;28;20126;-76
2023/10/05 09:16:47;;;;;;;10.65;5.78;;;;;;;;;;5097354;28;20040;-75
2023/10/05 09:19:16;;;;;;;10.65;5.90;;;;;;;;;;5097875;28;20016;-76
2023/10/05 09:21:51;;;;;;;9.57;5.85;;;;;;;;;;5098535;28;20200;-74
2023/10/05 09:24:20;;;;;;;10.32;5.55;;;;;;;;;;5097221;28;20116;-75
2023/10/05 09:26:55;;;;;;;10.50;5.63;;;;;;;;;;5098236;28;20438;-74
2023/10/05 09:29:28;;;;;;;9.45;5.45;;;;;;;;;;5096686;28;20110;-75
2023/10/05 09:31:54;;;;;;;6.93;5.38;;;;;;;;;;5095139;28;20084;-75
2023/10/05 09:34:38;;;;;;;6.47;5.47;;;;;;;;;;5099070;28;20047;-75
2023/10/05 09:37:07;;;;;;;8.98;5.68;;;;;;;;;;5097395;28;20492;-76
2023/10/05 09:39:43;;;;;;;14.52;5.78;;;;;;;;;;5093920;28;20027;-75
2023/10/05 09:42:16;;;;;;;7.63;5.95;;;;;;;;;;5097459;28;20027;-74
2023/10/05 09:44:51;;;;;;;14.65;6.43;;;;;;;;;;5095156;28;20019;-75
2023/10/05 09:47:20;;;;;;;13.52;6.13;;;;;;;;;;5090041;28;20042;-75
2023/10/05 09:49:46;;;;;;;8.00;6.30;;;;;;;;;;5095280;28;20036;-75
2023/10/05 09:52:13;;;;;;;9.40;5.95;;;;;;;;;;5094333;28;20043;-74
2023/10/05 09:54:40;;;;;;;8.50;5.32;;;;;;;;;;5098251;28;20039;-76
2023/10/05 09:57:10;;;;;;;8.15;5.47;;;;;;;;;;5094084;28;20055;-75
2023/10/05 09:59:41;;;;;;;7.95;6.20;;;;;;;;;;5095623;28;20093;-74
2023/10/05 10:02:12;;;;;;;12.18;5.78;;;;;;;;;;5096953;28;20449;-77
2023/10/05 10:04:39;;;;;;;9.10;5.93;;;;;;;;;;5094536;28;20048;-75
2023/10/05 10:07:15;;;;;;;8.68;5.60;;;;;;;;;;5095358;28;20050;-76
2023/10/05 10:09:43;;;;;;;9.43;5.43;;;;;;;;;;5093968;28;20501;-75
2023/10/05 10:12:11;;;;;;;8.60;5.38;;;;;;;;;;5095828;28;20051;-75
2023/10/05 10:14:41;;;;;;;8.27;5.53;;;;;;;;;;5092895;28;20039;-75
2023/10/05 10:17:24;;;;;;;9.75;6.05;;;;;;;;;;5086770;28;20350;-75
2023/10/05 10:19:55;;;;;;;6.25;5.63;;;;;;;;;;5094116;28;20114;-75
2023/10/05 10:22:26;;;;;;;6.03;5.07;;;;;;;;;;5095428;28;20032;-74
2023/10/05 10:24:56;;;;;;;10.10;5.18;;;;;;;;;;5090327;28;20471;-74
2023/10/05 10:27:24;;;;;;;6.80;5.70;;;;;;;;;;5096840;28;20043;-75
2023/10/05 10:29:55;;;;;;;7.07;5.90;;;;;;;;;;5094299;28;20039;-75
2023/10/05 10:32:22;;;;;;;7.45;5.10;;;;;;;;;;5095537;28;20020;-75
2023/10/05 10:35:26;;;;;;;10.48;5.55;;;;;;;;;;5097702;28;20843;-75
2023/10/05 10:37:44;;;;;;;11.63;5.60;;;;;;;;;;5096269;28;20035;-74
2023/10/05 10:42:49;;;;;;;11.38;5.53;;;;;;;;;;5095295;28;20468;-75
2023/10/05 10:45:15;;;;;;;9.63;5.28;;;;;;;;;;5093628;28;20024;-75
2023/10/05 10:47:45;;;;;;;7.63;5.25;;;;;;;;;;5095361;28;20027;-75
2023/10/05 10:50:23;;;;;;;8.07;4.97;;;;;;;;;;5097470;28;20065;-75
2023/10/05 10:52:50;;;;;;;13.17;5.23;;;;;;;;;;5095837;28;20038;-75
2023/10/05 10:55:16;;;;;;;7.22;5.00;;;;;;;;;;5095633;28;20058;-74
2023/10/05 10:57:45;;;;;;;10.15;5.90;;;;;;;;;;5096142;28;20020;-75
2023/10/05 11:02:55;;;;;;;9.18;5.20;;;;;;;;;;5094296;28;20031;-75
2023/10/05 11:05:21;;;;;;;10.32;5.15;;;;;;;;;;5095653;28;20027;-75
2023/10/05 11:07:46;;;;;;;10.80;5.43;;;;;;;;;;5098907;28;20028;-75
2023/10/05 11:10:18;;;;;;;8.88;5.88;;;;;;;;;;5099747;28;20426;-75
2023/10/05 11:12:53;;;;;;;8.52;5.40;;;;;;;;;;5089557;28;20028;-75
2023/10/05 11:15:19;;;;;;;9.50;5.20;;;;;;;;;;5099271;28;20323;-75
2023/10/05 11:17:45;;;;;;;7.70;5.57;;;;;;;;;;5099392;28;20495;-76
2023/10/05 11:20:25;;;;;;;7.35;5.18;;;;;;;;;;5098633;28;20381;-75
2023/10/05 11:22:54;;;;;;;8.00;5.70;;;;;;;;;;5098453;28;20028;-76
2023/10/05 11:25:23;;;;;;;10.25;5.72;;;;;;;;;;5099987;28;20031;-77
2023/10/05 11:27:56;;;;;;;8.48;5.43;;;;;;;;;;5097320;28;20023;-76
2023/10/05 11:30:22;;;;;;;8.18;5.65;;;;;;;;;;5099206;28;20035;-76
2023/10/05 11:32:54;;;;;;;16.67;9.95;;;;;;;;;;5095838;28;20027;-76
2023/10/05 11:35:28;;;;;;;10.93;6.60;;;;;;;;;;5096692;28;20058;-76
2023/10/05 11:37:59;;;;;;;10.65;5.85;;;;;;;;;;5086713;28;20373;-76
2023/10/05 11:40:30;;;;;;;17.88;7.20;;;;;;;;;;5075054;28;20445;-76
2023/10/05 11:42:56;;;;;;;7.95;5.43;;;;;;;;;;5083783;28;20043;-76
2023/10/05 11:45:21;;;;;;;10.70;5.40;;;;;;;;;;5088021;28;20058;-77
2023/10/05 11:47:57;;;;;;;7.30;5.18;;;;;;;;;;5091152;28;20055;-76
2023/10/05 11:50:28;;;;;;;12.45;5.95;;;;;;;;;;5094498;28;20020;-77
2023/10/05 11:52:54;;;;;;;7.80;5.63;;;;;;;;;;5096721;28;20039;-76
2023/10/05 11:55:20;;;;;;;10.77;5.10;;;;;;;;;;5097776;28;20024;-76
2023/10/05 11:57:45;;;;;;;8.07;5.45;;;;;;;;;;5098420;28;20064;-76
2023/10/05 12:00:13;;;;;;;10.43;5.30;;;;;;;;;;5098469;28;20118;-78
2023/10/05 12:02:38;;;;;;;6.13;4.90;;;;;;;;;;5098671;28;20015;-76
2023/10/05 12:05:04;;;;;;;8.85;5.80;;;;;;;;;;5097569;28;20326;-77
2023/10/05 12:07:29;;;;;;;6.53;5.45;;;;;;;;;;5098880;28;20343;-77
2023/10/05 12:09:54;;;;;;;10.40;5.10;;;;;;;;;;5098886;28;20041;-76
2023/10/05 12:12:20;;;;;;;8.32;5.60;;;;;;;;;;5099904;28;20042;-75
2023/10/05 12:14:46;;;;;;;8.48;5.82;;;;;;;;;;5087815;28;20039;-74
2023/10/05 12:17:11;;;;;;;8.90;5.53;;;;;;;;;;5090815;28;20042;-74
2023/10/05 12:19:38;;;;;;;8.82;5.85;;;;;;;;;;5095848;28;20423;-75
2023/10/05 12:22:06;;;;;;;16.35;6.35;;;;;;;;;;5097504;28;20115;-76
2023/10/05 12:24:33;;;;;;;11.10;5.82;;;;;;;;;;5096921;28;20337;-75
2023/10/05 12:26:59;;;;;;;10.18;5.70;;;;;;;;;;5100444;28;20100;-77
2023/10/05 12:29:25;;;;;;;6.95;4.88;;;;;;;;;;5098344;28;20051;-74
2023/10/05 12:31:50;;;;;;;9.13;5.45;;;;;;;;;;5098521;28;20136;-76
2023/10/05 12:34:16;;;;;;;8.85;6.65;;;;;;;;;;5097442;28;20043;-76
2023/10/05 12:36:49;;;;;;;8.45;5.65;;;;;;;;;;5098882;28;20031;-73
2023/10/05 12:39:15;;;;;;;9.95;7.07;;;;;;;;;;5086104;28;20039;-76
2023/10/05 12:41:43;;;;;;;56.42;40.35;;;;;;;;;;5072440;28;20400;-77
2023/10/05 12:44:13;;;;;;;15.00;10.07;;;;;;;;;;5072206;28;20165;-75
2023/10/05 12:46:47;;;;;;;10.77;5.00;;;;;;;;;;5087590;28;20712;-73
2023/10/05 12:49:16;;;;;;;8.50;5.20;;;;;;;;;;5092977;28;20016;-80
2023/10/05 12:51:42;;;;;;;8.40;5.00;;;;;;;;;;5096483;28;20111;-74
2023/10/05 12:54:28;;;;;;;5.90;4.68;;;;;;;;;;5095677;28;20028;-76
2023/10/05 12:56:54;;;;;;;6.70;5.20;;;;;;;;;;5086544;28;20043;-77
2023/10/05 12:59:19;;;;;;;6.20;5.13;;;;;;;;;;5095447;28;20028;-73
2023/10/05 13:01:46;;;;;;;7.43;5.60;;;;;;;;;;5096891;28;20414;-74
2023/10/05 13:04:12;;;;;;;12.40;6.25;;;;;;;;;;5095154;28;20047;-76
2023/10/05 13:06:38;;;;;;;8.25;5.90;;;;;;;;;;5070637;28;20071;-75
2023/10/05 13:09:04;;;;;;;10.40;5.57;;;;;;;;;;5088444;28;20048;-74
2023/10/05 13:11:30;;;;;;;9.00;5.68;;;;;;;;;;5098252;28;20032;-74
2023/10/05 13:13:55;;;;;;;10.73;7.03;;;;;;;;;;5096378;28;20529;-74
2023/10/05 13:16:21;;;;;;;16.75;7.10;;;;;;;;;;5097333;28;20058;-76
2023/10/05 13:18:47;;;;;;;8.05;5.38;;;;;;;;;;5099105;28;20443;-76
2023/10/05 13:21:14;;;;;;;9.90;6.20;;;;;;;;;;5094307;28;20337;-75
2023/10/05 13:23:40;;;;;;;19.08;11.07;;;;;;;;;;5081582;28;20024;-74
2023/10/05 13:26:06;;;;;;;9.90;7.57;;;;;;;;;;5082636;28;20031;-76
2023/10/05 13:28:32;;;;;;;15.25;12.27;;;;;;;;;;5076803;28;20077;-77
2023/10/05 13:30:58;;;;;;;8.48;5.55;;;;;;;;;;5072250;28;20030;-76
2023/10/05 13:33:29;;;;;;;7.82;5.32;;;;;;;;;;5071151;28;20027;-77
2023/10/05 13:35:55;;;;;;;7.65;5.38;;;;;;;;;;5070343;28;20032;-77
2023/10/05 13:38:29;;;;;;;7.85;6.38;;;;;;;;;;5083274;28;20101;-76
2023/10/05 13:40:58;;;;;;;28.75;25.85;;;;;;;;;;5081719;28;20031;-76
2023/10/05 13:43:25;;;;;;;;;;;;;;;;;;5083257;28;20020;-76
2023/10/05 13:45:51;;;;;;;16.60;9.30;;;;;;;;;;5090827;28;19912;-76
2023/10/05 13:48:16;;;;;;;9.63;6.32;;;;;;;;;;5095227;28;20466;-75
2023/10/05 13:50:41;;;;;;;9.73;5.45;;;;;;;;;;5089325;28;20832;-75
2023/10/05 13:53:09;;;;;;;8.73;6.13;;;;;;;;;;5084215;28;20039;-76
2023/10/05 13:55:35;;;;;;;7.40;5.13;;;;;;;;;;5082419;28;20042;-75
2023/10/05 13:58:00;;;;;;;10.38;5.90;;;;;;;;;;5084556;28;20379;-75
2023/10/05 14:00:26;;;;;;;8.18;6.95;;;;;;;;;;5094109;28;20034;-73
2023/10/05 14:02:51;;;;;;;11.63;7.25;;;;;;;;;;5089266;28;20027;-75
2023/10/05 14:05:19;;;;;;;10.13;7.32;;;;;;;;;;5095870;28;20031;-75
2023/10/05 14:07:50;;;;;;;8.20;6.40;;;;;;;;;;5091880;28;20038;-74
2023/10/05 14:10:16;;;;;;;8.73;5.80;;;;;;;;;;5095772;28;20028;-75
2023/10/05 14:12:42;;;;;;;7.60;5.80;;;;;;;;;;5092097;28;20096;-74
2023/10/05 14:15:09;;;;;;;7.03;5.53;;;;;;;;;;5086120;28;20024;-74
2023/10/05 14:17:35;;;;;;;7.88;5.28;;;;;;;;;;5074298;28;20047;-71
2023/10/05 14:20:01;;;;;;;8.07;4.75;;;;;;;;;;5080815;28;20091;-75
2023/10/05 14:22:33;;;;;;;8.18;4.72;;;;;;;;;;5072727;28;20032;-74
2023/10/05 14:25:03;;;;;;;7.15;5.32;;;;;;;;;;5067096;28;20438;-73
2023/10/05 14:27:29;;;;;;;9.30;4.95;;;;;;;;;;5068284;28;20016;-72
2023/10/05 14:29:54;;;;;;;11.48;5.65;;;;;;;;;;5082410;28;21153;-71
2023/10/05 14:32:23;;;;;;;6.40;4.88;;;;;;;;;;5090177;28;20031;-73
2023/10/05 14:34:52;;;;;;;5.53;4.90;;;;;;;;;;5083219;28;20044;-72
2023/10/05 14:37:18;;;;;;;6.55;4.82;;;;;;;;;;5096037;28;20039;-74
2023/10/05 14:39:45;;;;;;;5.95;4.95;;;;;;;;;;5087951;28;20057;-76
2023/10/05 14:42:10;;;;;;;6.68;5.43;;;;;;;;;;5089449;28;20038;-73
2023/10/05 14:44:35;;;;;;;7.32;5.03;;;;;;;;;;5091052;27;20028;-72
2023/10/05 14:47:04;;;;;;;7.65;5.07;;;;;;;;;;5101367;28;20032;-72
2023/10/05 14:49:31;;;;;;;7.25;5.60;;;;;;;;;;5099960;28;20108;-76
2023/10/05 14:51:57;;;;;;;6.60;5.10;;;;;;;;;;5088606;27;20037;-72
2023/10/05 14:54:22;;;;;;;12.05;6.28;;;;;;;;;;5089781;27;20019;-73
2023/10/05 14:56:48;;;;;;;9.23;6.15;;;;;;;;;;5088017;27;20027;-72
2023/10/05 14:59:13;;;;;;;10.10;6.50;;;;;;;;;;5084106;28;20080;-75
2023/10/05 15:01:40;;;;;;;7.57;6.20;;;;;;;;;;5087716;27;20028;-73